Time;durP1;ratioP1;P1;durP2;ratioP2;P2;SDS_P1;SDS_P2;PMS_P1;PMS_P2;Temp;Humidity;BMP_temperature;BMP_pressure;BME280_temperature;BME280_humidity;BME280_pressure;Samples;Min_cycle;Max_cycle;Signal;HPM_P1;HPM_P2
2022/04/25 00:01:38;;;;;;;8.45;7.55;;;11.30;99.90;;;;;;5087019;28;20431;-79
2022/04/25 00:04:03;;;;;;;8.73;7.50;;;11.30;99.90;;;;;;5082661;28;20020;-79
2022/04/25 00:06:30;;;;;;;8.88;7.63;;;11.40;99.90;;;;;;5086745;28;20368;-80
2022/04/25 00:08:56;;;;;;;10.23;7.35;;;11.30;99.90;;;;;;5087778;28;20027;-79
2022/04/25 00:11:21;;;;;;;8.43;6.70;;;11.40;99.90;;;;;;5088301;28;20031;-80
2022/04/25 00:13:47;;;;;;;9.35;7.05;;;11.40;99.90;;;;;;5081614;28;20028;-79
2022/04/25 00:16:13;;;;;;;8.70;7.68;;;11.40;99.90;;;;;;5080116;28;20035;-79
2022/04/25 00:18:39;;;;;;;8.90;7.53;;;11.30;99.90;;;;;;5081105;28;20123;-80
2022/04/25 00:21:05;;;;;;;9.85;7.50;;;11.30;99.90;;;;;;5086719;28;20084;-79
2022/04/25 00:23:31;;;;;;;11.70;8.30;;;11.40;99.90;;;;;;5089480;28;20282;-80
2022/04/25 00:25:56;;;;;;;9.18;7.32;;;11.40;99.90;;;;;;5079518;28;20024;-80
2022/04/25 00:28:22;;;;;;;9.90;8.30;;;11.40;99.90;;;;;;5082147;28;20043;-80
2022/04/25 00:30:47;;;;;;;9.40;7.80;;;11.30;99.90;;;;;;5084701;28;20028;-79
2022/04/25 00:33:14;;;;;;;9.43;7.47;;;11.30;99.90;;;;;;5076245;28;20051;-79
2022/04/25 00:35:40;;;;;;;10.60;7.53;;;11.30;99.90;;;;;;5084335;28;20024;-79
2022/04/25 00:38:06;;;;;;;9.20;7.78;;;11.30;99.90;;;;;;5088176;28;20035;-79
2022/04/25 00:40:31;;;;;;;9.00;7.30;;;11.30;99.90;;;;;;5083709;28;20111;-81
2022/04/25 00:42:57;;;;;;;11.00;8.38;;;11.30;99.90;;;;;;5085192;28;20027;-79
2022/04/25 00:45:22;;;;;;;12.20;8.43;;;11.30;99.90;;;;;;5087576;28;20035;-81
2022/04/25 00:47:48;;;;;;;12.20;8.48;;;11.30;99.90;;;;;;5081400;28;20103;-78
2022/04/25 00:50:14;;;;;;;9.23;7.80;;;11.30;99.90;;;;;;5087169;28;20024;-79
2022/04/25 00:52:40;;;;;;;9.85;8.07;;;11.20;99.90;;;;;;5091462;28;20468;-80
2022/04/25 00:55:08;;;;;;;10.88;8.32;;;11.20;99.90;;;;;;5082688;28;20088;-79
2022/04/25 00:57:35;;;;;;;10.32;8.60;;;11.20;99.90;;;;;;5080256;28;20023;-79
2022/04/25 01:00:02;;;;;;;9.23;8.00;;;11.20;99.90;;;;;;5080909;28;20484;-80
2022/04/25 01:02:28;;;;;;;11.15;8.98;;;11.20;99.90;;;;;;5082057;28;20072;-81
2022/04/25 01:04:58;;;;;;;10.02;8.35;;;11.10;99.90;;;;;;5081489;28;20024;-80
2022/04/25 01:07:23;;;;;;;13.48;9.57;;;11.10;99.90;;;;;;5084668;28;20027;-78
2022/04/25 01:09:49;;;;;;;11.98;9.40;;;11.00;99.90;;;;;;5085494;28;20944;-79
2022/04/25 01:12:15;;;;;;;11.63;9.30;;;11.00;99.90;;;;;;5085305;28;20373;-79
2022/04/25 01:14:40;;;;;;;10.90;9.35;;;10.90;99.90;;;;;;5082954;28;20024;-79
2022/04/25 01:17:07;;;;;;;9.93;8.60;;;10.80;99.90;;;;;;5080317;28;20473;-81
2022/04/25 01:19:33;;;;;;;12.95;9.95;;;10.90;99.90;;;;;;5082257;28;20031;-81
2022/04/25 01:22:02;;;;;;;12.60;9.93;;;10.80;99.90;;;;;;5083287;28;20107;-81
2022/04/25 01:27:17;;;;;;;12.65;9.05;;;10.80;99.90;;;;;;5080656;28;20035;-79
2022/04/25 01:29:47;;;;;;;12.00;9.55;;;10.80;99.90;;;;;;5083907;28;20107;-79
2022/04/25 01:32:13;;;;;;;10.25;8.57;;;10.80;99.90;;;;;;5084798;28;20039;-79
2022/04/25 01:34:39;;;;;;;12.50;10.02;;;10.90;99.90;;;;;;5087781;28;20032;-78
2022/04/25 01:37:07;;;;;;;11.40;9.48;;;10.90;99.90;;;;;;5083500;28;20020;-78
2022/04/25 01:39:44;;;;;;;12.70;10.20;;;10.90;99.90;;;;;;5081370;28;20055;-81
2022/04/25 01:42:09;;;;;;;14.25;9.57;;;10.90;99.90;;;;;;5086493;28;20080;-80
2022/04/25 01:44:36;;;;;;;12.90;9.80;;;10.90;99.90;;;;;;5087058;28;20503;-79
2022/04/25 01:47:02;;;;;;;15.52;9.80;;;10.80;99.90;;;;;;5077473;28;20027;-81
2022/04/25 01:49:28;;;;;;;12.32;9.43;;;10.70;99.90;;;;;;5074867;28;20381;-82
2022/04/25 01:51:54;;;;;;;15.35;9.48;;;10.80;99.90;;;;;;5083045;28;20089;-78
2022/04/25 01:54:25;;;;;;;14.20;8.98;;;10.70;99.90;;;;;;5090034;28;20020;-78
2022/04/25 01:56:51;;;;;;;15.05;9.05;;;10.70;99.90;;;;;;5073024;28;20027;-76
2022/04/25 01:59:16;;;;;;;14.13;8.88;;;10.70;99.90;;;;;;5081498;28;20020;-80
2022/04/25 02:01:43;;;;;;;15.55;9.40;;;10.70;99.90;;;;;;5084796;28;20536;-81
2022/04/25 02:04:08;;;;;;;15.82;9.07;;;10.70;99.90;;;;;;5096730;28;20028;-78
2022/04/25 02:06:34;;;;;;;17.60;9.60;;;10.70;99.90;;;;;;5072262;28;20381;-80
2022/04/25 02:09:00;;;;;;;11.98;7.75;;;10.70;99.90;;;;;;5077644;28;20107;-79
2022/04/25 02:11:25;;;;;;;17.17;9.35;;;10.60;99.90;;;;;;5082929;28;20192;-79
2022/04/25 02:13:54;;;;;;;12.30;8.75;;;10.60;99.90;;;;;;5089515;28;20493;-81
2022/04/25 02:16:21;;;;;;;17.48;8.77;;;10.60;99.90;;;;;;5080041;28;20363;-80
2022/04/25 02:18:47;;;;;;;20.60;9.13;;;10.60;99.90;;;;;;5092398;28;20039;-78
2022/04/25 02:21:12;;;;;;;13.90;8.82;;;10.50;99.90;;;;;;5082820;28;20032;-77
2022/04/25 02:23:38;;;;;;;14.10;9.00;;;10.50;99.90;;;;;;5088038;28;20039;-77
2022/04/25 02:26:05;;;;;;;17.15;9.70;;;10.50;99.90;;;;;;5084460;28;20024;-77
2022/04/25 02:28:31;;;;;;;16.25;9.85;;;10.40;99.90;;;;;;5088590;28;20031;-78
2022/04/25 02:30:58;;;;;;;17.92;9.73;;;10.30;99.90;;;;;;5086664;28;20487;-78
2022/04/25 02:33:24;;;;;;;18.38;9.77;;;10.20;99.90;;;;;;5092087;28;20016;-77
2022/04/25 02:35:49;;;;;;;13.20;9.75;;;10.20;99.90;;;;;;5088517;28;20027;-78
2022/04/25 02:38:15;;;;;;;15.32;10.35;;;10.20;99.90;;;;;;5083684;28;20024;-78
2022/04/25 02:40:41;;;;;;;15.85;9.63;;;10.20;99.90;;;;;;5084299;28;20028;-77
2022/04/25 02:43:06;;;;;;;16.70;10.20;;;10.20;99.90;;;;;;5091800;28;20614;-77
2022/04/25 02:45:32;;;;;;;19.55;10.30;;;10.10;99.90;;;;;;5090222;28;20036;-78
2022/04/25 02:47:58;;;;;;;17.00;10.05;;;10.10;99.90;;;;;;5085501;28;20036;-77
2022/04/25 02:50:24;;;;;;;17.83;9.25;;;10.00;99.90;;;;;;5086755;28;20040;-77
2022/04/25 02:52:53;;;;;;;15.40;10.13;;;10.00;99.90;;;;;;5087523;28;20070;-77
2022/04/25 02:55:21;;;;;;;21.08;10.77;;;10.00;99.90;;;;;;5084650;28;20410;-77
2022/04/25 02:57:47;;;;;;;16.58;10.68;;;10.00;99.90;;;;;;5083669;28;20036;-77
2022/04/25 03:00:13;;;;;;;17.13;9.70;;;9.90;99.90;;;;;;5087013;28;20032;-78
2022/04/25 03:02:38;;;;;;;17.85;11.27;;;9.80;99.90;;;;;;5082573;28;20049;-77
2022/04/25 03:05:05;;;;;;;22.25;12.15;;;9.80;99.90;;;;;;5089510;28;20016;-77
2022/04/25 03:07:30;;;;;;;19.02;11.98;;;9.70;99.90;;;;;;5079052;28;20028;-77
2022/04/25 03:09:56;;;;;;;17.83;10.50;;;9.60;99.90;;;;;;5084768;28;20028;-79
2022/04/25 03:12:22;;;;;;;16.63;10.65;;;9.60;99.90;;;;;;5089767;28;20434;-79
2022/04/25 03:14:48;;;;;;;14.68;10.40;;;9.60;99.90;;;;;;5091133;28;20028;-79
2022/04/25 03:17:13;;;;;;;21.15;11.00;;;9.70;99.90;;;;;;5090506;28;20024;-79
2022/04/25 03:19:39;;;;;;;13.93;10.43;;;9.70;99.90;;;;;;5091691;28;20031;-79
2022/04/25 03:22:05;;;;;;;16.08;11.13;;;9.60;99.90;;;;;;5082630;28;20020;-77
2022/04/25 03:24:30;;;;;;;18.95;11.43;;;9.70;99.90;;;;;;5091441;28;20024;-77
2022/04/25 03:26:57;;;;;;;15.88;10.57;;;9.60;99.90;;;;;;5086136;28;20032;-77
2022/04/25 03:29:22;;;;;;;17.58;11.32;;;9.60;99.90;;;;;;5085004;28;20051;-79
2022/04/25 03:31:48;;;;;;;20.13;11.27;;;9.60;99.90;;;;;;5077299;28;20456;-79
2022/04/25 03:34:13;;;;;;;19.77;11.25;;;9.60;99.90;;;;;;5089268;28;20081;-78
2022/04/25 03:36:39;;;;;;;21.02;11.77;;;9.70;99.90;;;;;;5084684;28;20055;-77
2022/04/25 03:39:04;;;;;;;17.55;11.50;;;9.60;99.90;;;;;;5083199;28;20016;-80
2022/04/25 03:41:31;;;;;;;21.05;12.23;;;9.60;99.90;;;;;;5085664;28;20377;-79
2022/04/25 03:44:01;;;;;;;18.52;11.50;;;9.60;99.90;;;;;;5086633;28;20104;-78
2022/04/25 03:46:27;;;;;;;17.70;10.48;;;9.60;99.90;;;;;;5080705;28;20032;-77
2022/04/25 03:48:54;;;;;;;15.25;11.35;;;9.60;99.90;;;;;;5089723;28;20073;-78
2022/04/25 03:51:20;;;;;;;14.63;10.40;;;9.50;99.90;;;;;;5089218;28;20062;-78
2022/04/25 03:53:45;;;;;;;17.75;11.40;;;9.50;99.90;;;;;;5078510;28;20044;-78
2022/04/25 03:58:55;;;;;;;18.45;11.15;;;9.40;99.90;;;;;;5086354;28;20092;-77
2022/04/25 04:01:21;;;;;;;16.35;10.90;;;9.40;99.90;;;;;;5082696;28;20028;-78
2022/04/25 04:03:46;;;;;;;17.73;11.52;;;9.40;99.90;;;;;;5082729;28;20411;-80
2022/04/25 04:06:13;;;;;;;17.77;11.45;;;9.20;99.90;;;;;;5078067;28;20029;-80
2022/04/25 04:08:39;;;;;;;20.95;11.15;;;9.20;99.90;;;;;;5078018;28;20031;-77
2022/04/25 04:11:05;;;;;;;17.38;11.10;;;9.30;99.90;;;;;;5079494;28;20628;-78
2022/04/25 04:13:31;;;;;;;20.98;11.95;;;9.30;99.90;;;;;;5085520;28;20047;-81
2022/04/25 04:15:56;;;;;;;18.65;11.45;;;9.20;99.90;;;;;;5086848;28;20063;-80
2022/04/25 04:18:23;;;;;;;24.95;12.20;;;9.20;99.90;;;;;;5088977;28;21080;-80
2022/04/25 04:20:49;;;;;;;15.25;11.93;;;9.20;99.90;;;;;;5074559;28;20488;-80
2022/04/25 04:23:14;;;;;;;22.75;11.93;;;9.20;99.90;;;;;;5076922;28;20059;-80
2022/04/25 04:25:40;;;;;;;18.45;12.32;;;9.10;99.90;;;;;;5082084;28;20381;-78
2022/04/25 04:28:06;;;;;;;20.02;11.65;;;9.20;99.90;;;;;;5077859;28;20050;-79
2022/04/25 04:30:32;;;;;;;17.55;11.10;;;9.20;99.90;;;;;;5077304;28;20457;-80
2022/04/25 04:32:58;;;;;;;18.25;11.13;;;9.20;99.90;;;;;;5074286;28;20964;-77
2022/04/25 04:38:11;;;;;;;18.15;10.90;;;9.10;99.90;;;;;;5085441;28;20028;-80
2022/04/25 04:40:42;;;;;;;22.05;12.02;;;9.10;99.90;;;;;;5084520;28;20032;-78
2022/04/25 04:43:08;;;;;;;20.48;10.98;;;8.90;99.90;;;;;;5082949;28;20504;-77
2022/04/25 04:45:34;;;;;;;19.83;11.73;;;9.00;99.90;;;;;;5081129;28;20111;-76
2022/04/25 04:47:59;;;;;;;23.23;12.40;;;9.00;99.90;;;;;;5092684;28;20423;-77
2022/04/25 04:50:25;;;;;;;18.10;10.93;;;9.00;99.90;;;;;;5082109;28;20028;-77
2022/04/25 04:52:57;;;;;;;19.70;12.93;;;9.00;99.90;;;;;;5092806;28;20357;-79
2022/04/25 04:55:22;;;;;;;18.17;11.83;;;9.00;99.90;;;;;;5074393;28;20028;-78
2022/04/25 04:57:48;;;;;;;20.02;12.30;;;9.00;99.90;;;;;;5086656;28;20264;-79
2022/04/25 05:00:15;;;;;;;25.55;12.38;;;9.00;99.90;;;;;;5090088;28;20016;-76
2022/04/25 05:02:42;;;;;;;17.17;10.82;;;9.00;99.90;;;;;;5083966;28;20380;-77
2022/04/25 05:05:08;;;;;;;19.38;12.45;;;9.10;99.90;;;;;;5081811;28;20290;-77
2022/04/25 05:07:35;;;;;;;19.85;11.52;;;9.10;99.90;;;;;;5078647;28;20028;-76
2022/04/25 05:10:03;;;;;;;21.05;11.70;;;9.10;99.90;;;;;;5085397;28;20050;-78
2022/04/25 05:12:29;;;;;;;18.42;11.30;;;9.10;99.90;;;;;;5085957;28;20077;-78
2022/04/25 05:14:54;;;;;;;24.85;11.57;;;9.10;99.90;;;;;;5088049;28;20032;-77
2022/04/25 05:17:20;;;;;;;20.23;11.98;;;9.10;99.90;;;;;;5086873;28;20107;-78
2022/04/25 05:19:45;;;;;;;18.42;10.70;;;9.10;99.90;;;;;;5085827;28;20491;-78
2022/04/25 05:22:11;;;;;;;18.52;11.88;;;9.10;99.90;;;;;;5085484;28;20070;-76
2022/04/25 05:24:36;;;;;;;20.35;11.30;;;9.20;99.90;;;;;;5085597;28;20028;-77
2022/04/25 05:27:02;;;;;;;19.75;12.05;;;9.20;99.90;;;;;;5083899;28;20092;-78
2022/04/25 05:29:27;;;;;;;21.17;11.48;;;9.20;99.90;;;;;;5082071;28;20108;-77
2022/04/25 05:31:54;;;;;;;19.88;12.45;;;9.20;99.90;;;;;;5091993;28;21417;-77
2022/04/25 05:34:19;;;;;;;19.50;12.05;;;9.30;99.90;;;;;;5090861;28;20016;-78
2022/04/25 05:36:47;;;;;;;18.40;11.30;;;9.30;99.90;;;;;;5089092;28;20051;-77
2022/04/25 05:39:12;;;;;;;16.67;11.52;;;9.20;99.90;;;;;;5084011;28;20085;-78
2022/04/25 05:41:40;;;;;;;18.85;11.98;;;9.30;99.90;;;;;;5086454;28;20028;-78
2022/04/25 05:44:09;;;;;;;17.08;11.27;;;9.40;99.90;;;;;;5086726;28;20028;-78
2022/04/25 05:46:34;;;;;;;16.23;10.75;;;9.30;99.90;;;;;;5069465;28;20047;-77
2022/04/25 05:51:59;;;;;;;18.17;10.85;;;9.40;99.90;;;;;;5084999;28;20074;-78
2022/04/25 05:54:26;;;;;;;17.63;10.93;;;9.40;99.90;;;;;;5086209;28;20506;-77
2022/04/25 05:56:52;;;;;;;21.25;12.07;;;9.40;99.90;;;;;;5087313;28;20141;-78
2022/04/25 05:59:18;;;;;;;17.17;10.80;;;9.40;99.90;;;;;;5088703;28;20028;-77
2022/04/25 06:01:44;;;;;;;18.05;11.43;;;9.40;99.90;;;;;;5091793;28;20452;-78
2022/04/25 06:04:10;;;;;;;15.52;10.40;;;9.50;99.90;;;;;;5086822;28;20081;-78
2022/04/25 06:06:35;;;;;;;16.15;10.63;;;9.40;99.90;;;;;;5090270;28;20043;-77
2022/04/25 06:09:02;;;;;;;12.65;10.55;;;9.40;99.90;;;;;;5091949;28;20047;-77
2022/04/25 06:11:28;;;;;;;15.52;11.05;;;9.50;99.90;;;;;;5091964;28;20905;-78
2022/04/25 06:13:56;;;;;;;17.40;11.90;;;9.50;99.90;;;;;;5091861;28;20060;-77
2022/04/25 06:16:21;;;;;;;14.38;11.43;;;9.50;99.90;;;;;;5091296;28;20028;-77
2022/04/25 06:18:46;;;;;;;15.75;11.00;;;9.50;99.90;;;;;;5091799;28;20027;-78
2022/04/25 06:21:12;;;;;;;18.73;10.73;;;9.50;99.90;;;;;;5091421;28;20028;-79
2022/04/25 06:23:37;;;;;;;16.25;10.48;;;9.60;99.90;;;;;;5090182;28;20036;-78
2022/04/25 06:26:03;;;;;;;22.05;10.52;;;9.50;99.90;;;;;;5080167;28;20538;-80
2022/04/25 06:28:29;;;;;;;21.58;11.10;;;9.50;99.90;;;;;;5091564;28;20024;-77
2022/04/25 06:30:55;;;;;;;14.10;10.48;;;9.60;99.90;;;;;;5090285;28;20456;-78
2022/04/25 06:33:20;;;;;;;14.73;9.95;;;9.60;99.90;;;;;;5090952;28;20089;-76
2022/04/25 06:35:46;;;;;;;15.82;10.70;;;9.70;99.90;;;;;;5089220;28;20035;-78
2022/04/25 06:38:12;;;;;;;19.70;11.40;;;9.80;99.90;;;;;;5089580;28;20028;-77
2022/04/25 06:40:40;;;;;;;17.27;11.18;;;9.80;99.90;;;;;;5096927;28;20422;-77
2022/04/25 06:43:07;;;;;;;13.77;10.43;;;9.90;99.90;;;;;;5092287;28;20028;-77
2022/04/25 06:45:33;;;;;;;19.92;12.68;;;10.00;99.90;;;;;;5086904;28;20031;-78
2022/04/25 06:47:59;;;;;;;16.60;10.30;;;10.00;99.90;;;;;;5089989;28;20024;-78
2022/04/25 06:50:25;;;;;;;17.77;10.68;;;10.00;99.90;;;;;;5088769;28;20020;-79
2022/04/25 06:52:50;;;;;;;15.60;10.73;;;10.10;99.90;;;;;;5088828;28;20050;-79
2022/04/25 06:55:16;;;;;;;15.25;10.18;;;10.20;99.90;;;;;;5089252;28;20450;-79
2022/04/25 06:57:42;;;;;;;17.13;10.93;;;10.20;99.80;;;;;;5087696;28;20024;-79
2022/04/25 07:00:09;;;;;;;14.57;10.07;;;10.30;99.80;;;;;;5077891;28;20024;-81
2022/04/25 07:02:36;;;;;;;15.48;10.68;;;10.30;99.60;;;;;;5087632;28;20482;-79
2022/04/25 07:05:04;;;;;;;23.48;10.90;;;10.30;99.50;;;;;;5088987;28;20099;-79
2022/04/25 07:07:30;;;;;;;17.52;10.68;;;10.20;99.40;;;;;;5088035;28;20020;-79
2022/04/25 07:09:56;;;;;;;13.45;9.60;;;10.20;99.30;;;;;;5089240;28;20545;-80
2022/04/25 07:12:21;;;;;;;16.85;9.82;;;10.20;99.10;;;;;;5090162;28;20047;-77
2022/04/25 07:14:47;;;;;;;16.45;10.68;;;10.20;99.20;;;;;;5090310;28;20049;-81
2022/04/25 07:17:13;;;;;;;24.15;10.98;;;10.30;99.10;;;;;;5088610;28;20020;-81
2022/04/25 07:19:39;;;;;;;13.88;10.32;;;10.30;99.30;;;;;;5074255;28;20032;-80
2022/04/25 07:30:20;;;;;;;15.30;9.43;;;10.40;98.60;;;;;;5089652;28;20105;-78
2022/04/25 07:32:46;;;;;;;18.73;11.18;;;10.40;98.90;;;;;;5089306;28;20075;-79
2022/04/25 07:35:12;;;;;;;17.35;10.82;;;10.40;99.00;;;;;;5088023;28;20042;-79
2022/04/25 07:37:37;;;;;;;19.95;9.98;;;10.30;98.90;;;;;;5086962;28;20028;-80
2022/04/25 07:40:06;;;;;;;14.73;10.65;;;10.30;98.80;;;;;;5088843;28;20494;-79
2022/04/25 07:42:33;;;;;;;15.57;9.88;;;10.40;99.20;;;;;;5089007;28;20077;-80
2022/04/25 07:44:59;;;;;;;13.27;9.85;;;10.50;98.80;;;;;;5089130;28;20095;-79
2022/04/25 07:47:24;;;;;;;13.95;9.40;;;10.50;98.30;;;;;;5085444;28;20107;-81
2022/04/25 07:49:50;;;;;;;13.00;8.52;;;10.40;98.70;;;;;;5089651;28;20474;-80
2022/04/25 07:52:17;;;;;;;12.27;9.57;;;10.40;98.30;;;;;;5088383;28;20028;-81
2022/04/25 07:54:43;;;;;;;14.00;10.48;;;10.50;98.50;;;;;;5085601;28;20060;-81
2022/04/25 07:57:09;;;;;;;14.80;9.23;;;10.60;98.70;;;;;;5087357;28;20051;-81
2022/04/25 07:59:34;;;;;;;13.02;9.30;;;10.50;98.60;;;;;;5084118;28;20021;-80
2022/04/25 08:02:01;;;;;;;12.60;9.43;;;10.60;98.50;;;;;;5068963;28;20033;-80
2022/04/25 08:04:27;;;;;;;14.73;9.98;;;10.60;98.40;;;;;;5086307;28;20392;-81
2022/04/25 08:06:53;;;;;;;10.23;8.73;;;10.60;98.30;;;;;;5081141;28;20036;-82
2022/04/25 08:09:18;;;;;;;19.00;9.93;;;10.80;98.30;;;;;;5077374;28;20028;-81
2022/04/25 08:11:44;;;;;;;16.48;9.43;;;10.90;97.90;;;;;;5075558;28;20134;-80
2022/04/25 08:19:39;;;;;;;17.58;11.15;;;10.80;97.50;;;;;;5078426;28;20063;-81
2022/04/25 08:22:09;;;;;;;13.00;10.52;;;10.80;97.80;;;;;;5084861;28;20179;-81
2022/04/25 08:24:36;;;;;;;15.40;9.68;;;10.90;97.80;;;;;;5085916;28;20020;-81
2022/04/25 08:27:03;;;;;;;11.77;8.38;;;11.00;97.50;;;;;;5079115;28;20028;-81
2022/04/25 08:29:29;;;;;;;12.45;9.10;;;11.00;97.30;;;;;;5077652;28;20059;-82
2022/04/25 08:31:55;;;;;;;13.63;9.25;;;11.20;97.30;;;;;;5083104;28;20044;-81
2022/04/25 08:34:21;;;;;;;13.48;8.88;;;11.20;97.30;;;;;;5073401;28;20036;-80
2022/04/25 08:36:47;;;;;;;12.20;9.15;;;11.20;97.00;;;;;;5077051;28;20424;-80
2022/04/25 08:39:12;;;;;;;13.63;9.27;;;11.30;97.40;;;;;;5080703;28;20067;-79
2022/04/25 08:41:49;;;;;;;13.07;9.85;;;11.40;97.00;;;;;;5086220;28;20486;-78
2022/04/25 08:44:16;;;;;;;13.98;8.95;;;11.60;96.30;;;;;;5088185;28;20027;-80
2022/04/25 08:46:45;;;;;;;11.32;8.20;;;11.50;96.40;;;;;;5080448;28;20081;-80
2022/04/25 08:49:12;;;;;;;15.23;8.73;;;11.50;96.70;;;;;;5083934;28;20107;-80
2022/04/25 08:51:38;;;;;;;14.10;8.63;;;11.50;96.00;;;;;;5082863;28;20044;-79
2022/04/25 08:54:08;;;;;;;11.65;8.82;;;11.50;96.10;;;;;;5068069;28;20032;-81
2022/04/25 08:56:40;;;;;;;13.02;8.63;;;11.50;96.00;;;;;;5081838;28;20028;-79
2022/04/25 08:59:07;;;;;;;14.55;9.48;;;11.40;96.30;;;;;;5074801;28;20020;-79
2022/04/25 09:01:34;;;;;;;12.88;8.25;;;11.40;96.90;;;;;;5085158;28;20039;-80
2022/04/25 09:04:01;;;;;;;10.52;8.27;;;11.50;96.20;;;;;;5071616;28;20021;-81
2022/04/25 09:06:27;;;;;;;12.43;8.45;;;11.60;96.20;;;;;;5071002;28;20458;-80
2022/04/25 09:08:52;;;;;;;15.05;9.25;;;11.70;96.10;;;;;;5086474;28;20025;-81
2022/04/25 09:14:04;;;;;;;10.93;8.10;;;12.00;95.60;;;;;;5086432;28;20426;-81
2022/04/25 09:16:29;;;;;;;15.32;8.27;;;12.10;95.30;;;;;;5087023;28;20048;-81
2022/04/25 09:18:55;;;;;;;13.77;8.80;;;11.90;95.70;;;;;;5086920;28;20075;-80
2022/04/25 09:21:21;;;;;;;12.68;7.95;;;11.90;95.40;;;;;;5084136;28;20031;-82
2022/04/25 09:23:46;;;;;;;12.57;7.35;;;12.00;95.70;;;;;;5075613;28;20040;-81
2022/04/25 09:26:21;;;;;;;11.10;7.70;;;11.90;95.60;;;;;;5086592;28;20034;-82
2022/04/25 09:28:53;;;;;;;16.80;9.27;;;11.90;95.70;;;;;;5071741;28;20056;-81
2022/04/25 09:31:19;;;;;;;12.35;8.40;;;12.00;95.70;;;;;;5085456;28;20105;-81
2022/04/25 09:33:46;;;;;;;13.18;8.60;;;12.00;95.20;;;;;;5085526;28;20048;-81
2022/04/25 09:36:11;;;;;;;12.70;8.73;;;12.10;95.70;;;;;;5079993;28;20456;-80
2022/04/25 09:38:39;;;;;;;11.32;7.50;;;12.10;95.20;;;;;;5083171;28;20036;-80
2022/04/25 09:41:09;;;;;;;12.40;7.55;;;12.20;94.90;;;;;;5068146;28;20021;-82
2022/04/25 09:43:38;;;;;;;11.88;7.82;;;12.20;94.70;;;;;;5086664;28;20024;-79
2022/04/25 09:46:09;;;;;;;10.07;6.88;;;12.30;95.50;;;;;;5086367;28;20032;-81
2022/04/25 09:48:37;;;;;;;12.55;7.47;;;12.40;94.50;;;;;;5086562;28;20028;-81
2022/04/25 09:51:06;;;;;;;11.02;7.63;;;12.50;93.90;;;;;;5074233;28;20034;-83
2022/04/25 09:53:52;;;;;;;10.32;7.00;;;12.60;94.40;;;;;;5076301;28;20032;-80
2022/04/25 09:56:20;;;;;;;10.23;7.03;;;12.60;93.90;;;;;;5086052;28;20035;-81
2022/04/25 09:59:06;;;;;;;11.82;6.90;;;12.60;93.30;;;;;;5086487;28;20020;-81
2022/04/25 10:01:34;;;;;;;9.25;7.00;;;12.70;93.80;;;;;;5082432;28;20054;-83
2022/04/25 10:04:00;;;;;;;10.52;7.13;;;12.60;93.40;;;;;;5075650;28;20016;-82
2022/04/25 10:06:32;;;;;;;8.85;6.68;;;12.60;93.60;;;;;;5078940;28;20028;-82
2022/04/25 10:09:00;;;;;;;8.10;6.57;;;12.50;93.70;;;;;;5078395;28;20083;-81
2022/04/25 10:11:34;;;;;;;9.68;7.60;;;12.50;94.50;;;;;;5078953;28;20122;-80
2022/04/25 10:14:00;;;;;;;14.85;8.05;;;12.60;93.70;;;;;;5082708;28;20024;-82
2022/04/25 10:16:28;;;;;;;15.10;7.45;;;12.70;93.80;;;;;;5078143;28;20093;-80
2022/04/25 10:18:54;;;;;;;11.43;7.30;;;12.70;93.30;;;;;;5073788;28;20054;-81
2022/04/25 10:21:21;;;;;;;10.55;7.75;;;12.80;93.50;;;;;;5075117;28;20023;-82
2022/04/25 10:23:47;;;;;;;11.27;7.22;;;12.70;93.00;;;;;;5085121;28;20028;-80
2022/04/25 10:26:13;;;;;;;12.10;7.70;;;12.70;93.30;;;;;;5068261;28;20039;-80
2022/04/25 10:28:48;;;;;;;13.77;8.57;;;12.60;93.50;;;;;;5069166;28;20032;-81
2022/04/25 10:31:21;;;;;;;11.00;7.10;;;12.60;94.10;;;;;;5075084;28;20029;-80
2022/04/25 10:33:54;;;;;;;12.25;7.80;;;12.60;93.20;;;;;;5086515;28;20086;-81
2022/04/25 10:36:38;;;;;;;11.20;8.25;;;12.50;93.70;;;;;;5084937;28;20081;-80
2022/04/25 10:39:15;;;;;;;11.75;7.47;;;12.50;93.50;;;;;;5066486;28;20500;-81
2022/04/25 10:44:26;;;;;;;12.90;7.93;;;12.50;93.70;;;;;;5075078;28;20031;-81
2022/04/25 10:47:09;;;;;;;11.90;7.53;;;12.60;93.70;;;;;;5086550;28;20107;-79
2022/04/25 10:49:46;;;;;;;12.98;8.52;;;12.60;94.10;;;;;;5090214;28;20027;-80
2022/04/25 10:52:37;;;;;;;12.88;9.23;;;12.60;93.70;;;;;;5089068;28;20398;-79
2022/04/25 10:55:30;;;;;;;14.80;7.38;;;12.60;93.60;;;;;;5088954;28;20028;-79
2022/04/25 10:58:15;;;;;;;18.45;9.07;;;12.70;93.20;;;;;;5089107;28;20027;-78
2022/04/25 11:00:46;;;;;;;14.52;8.57;;;12.70;93.40;;;;;;5088528;28;20027;-79
2022/04/25 11:03:19;;;;;;;12.05;8.50;;;12.80;93.60;;;;;;5089670;28;20115;-80
2022/04/25 11:05:50;;;;;;;12.05;7.40;;;12.80;93.20;;;;;;5081603;28;20023;-81
2022/04/25 11:08:19;;;;;;;14.52;7.97;;;12.90;93.00;;;;;;5084462;28;20052;-80
2022/04/25 11:10:48;;;;;;;9.75;7.30;;;13.00;93.00;;;;;;5072616;28;20050;-80
2022/04/25 11:13:18;;;;;;;12.98;7.57;;;13.00;92.60;;;;;;5087255;28;20089;-81
2022/04/25 11:15:56;;;;;;;10.63;7.53;;;13.10;92.70;;;;;;5089050;28;20024;-80
2022/04/25 11:18:33;;;;;;;10.90;8.25;;;13.20;92.40;;;;;;5087393;28;20059;-80
2022/04/25 11:21:04;;;;;;;8.18;6.43;;;13.40;93.00;;;;;;5088661;28;20101;-81
2022/04/25 11:23:45;;;;;;;10.82;7.00;;;13.50;92.50;;;;;;5081438;28;20078;-80
2022/04/25 11:26:23;;;;;;;8.05;6.22;;;13.60;92.50;;;;;;5071026;28;20024;-80
2022/04/25 11:29:09;;;;;;;12.10;6.80;;;13.80;91.90;;;;;;5080336;28;20111;-82
2022/04/25 11:31:36;;;;;;;8.15;6.05;;;13.90;91.90;;;;;;5085367;28;20635;-80
2022/04/25 11:34:04;;;;;;;11.35;6.97;;;13.80;91.60;;;;;;5090353;28;20020;-80
2022/04/25 11:36:35;;;;;;;9.07;6.78;;;13.80;92.00;;;;;;5088766;28;20027;-80
2022/04/25 11:41:46;;;;;;;12.13;7.03;;;14.00;91.70;;;;;;5076153;28;20357;-81
2022/04/25 11:44:12;;;;;;;8.13;5.85;;;14.00;91.50;;;;;;5078412;28;20111;-80
2022/04/25 11:46:38;;;;;;;12.15;7.00;;;14.00;91.70;;;;;;5072017;28;20353;-80
2022/04/25 11:49:05;;;;;;;10.77;6.65;;;14.20;91.40;;;;;;5089224;28;20024;-80
2022/04/25 11:51:35;;;;;;;10.98;7.80;;;14.30;90.80;;;;;;5080057;28;20032;-82
2022/04/25 11:54:04;;;;;;;14.02;8.45;;;14.40;91.50;;;;;;5084755;28;20103;-80
2022/04/25 11:56:32;;;;;;;8.25;6.53;;;14.50;90.80;;;;;;5089620;28;20372;-83
2022/04/25 11:58:58;;;;;;;10.25;7.47;;;14.60;91.40;;;;;;5087186;28;20036;-80
2022/04/25 12:01:36;;;;;;;9.23;6.75;;;14.70;90.60;;;;;;5089360;28;20058;-80
2022/04/25 12:04:33;;;;;;;9.20;6.63;;;14.80;90.60;;;;;;5089486;28;20241;-80
2022/04/25 12:07:01;;;;;;;10.27;6.85;;;14.80;90.40;;;;;;5087219;28;20031;-81
2022/04/25 12:15:36;;;;;;;8.05;6.57;;;15.00;90.70;;;;;;5077545;28;20043;-84
2022/04/25 12:18:22;;;;;;;11.38;6.03;;;15.20;90.50;;;;;;5087348;28;20020;-80
2022/04/25 12:20:58;;;;;;;9.60;7.03;;;15.40;90.10;;;;;;5088690;28;20461;-80
2022/04/25 12:23:29;;;;;;;12.25;8.20;;;15.50;88.10;;;;;;5091207;28;20049;-81
2022/04/25 12:25:55;;;;;;;9.55;7.10;;;15.70;87.90;;;;;;5072152;28;20048;-80
2022/04/25 12:28:23;;;;;;;9.27;5.82;;;15.80;87.50;;;;;;5085049;28;20016;-82
2022/04/25 12:31:03;;;;;;;9.13;7.65;;;15.90;86.80;;;;;;5088616;28;20530;-82
2022/04/25 12:33:35;;;;;;;8.30;4.93;;;15.90;85.70;;;;;;5087753;28;20482;-79
2022/04/25 12:36:27;;;;;;;13.23;9.07;;;16.00;86.60;;;;;;5088318;28;20384;-80
2022/04/25 12:39:10;;;;;;;14.80;6.77;;;16.10;85.50;;;;;;5089121;28;20456;-81
2022/04/25 12:41:38;;;;;;;8.15;6.57;;;16.40;86.80;;;;;;5088802;28;20030;-79
2022/04/25 12:44:10;;;;;;;9.50;5.90;;;16.60;86.90;;;;;;5074915;28;20028;-82
2022/04/25 12:46:41;;;;;;;8.63;6.22;;;16.80;85.90;;;;;;5077151;28;20020;-80
2022/04/25 12:49:22;;;;;;;9.57;6.53;;;17.00;87.90;;;;;;5088729;28;20081;-80
2022/04/25 12:51:53;;;;;;;8.13;6.78;;;17.20;84.60;;;;;;5085755;28;20032;-82
2022/04/25 12:54:25;;;;;;;8.77;6.55;;;17.30;83.80;;;;;;5087529;28;20105;-79
2022/04/25 12:57:07;;;;;;;8.00;6.28;;;17.40;83.90;;;;;;5087714;28;20016;-80
2022/04/25 12:59:34;;;;;;;7.53;6.22;;;17.60;82.10;;;;;;5088629;28;20027;-80
2022/04/25 13:02:04;;;;;;;11.00;6.03;;;17.50;82.70;;;;;;5087101;28;20212;-79
2022/04/25 13:04:30;;;;;;;7.97;6.53;;;17.50;81.00;;;;;;5079758;28;20017;-80
2022/04/25 13:06:55;;;;;;;6.32;4.97;;;17.40;81.60;;;;;;5072882;28;20039;-80
2022/04/25 13:09:21;;;;;;;7.72;5.35;;;17.60;83.10;;;;;;5086460;28;20056;-81
2022/04/25 13:11:46;;;;;;;8.45;5.57;;;17.80;82.20;;;;;;5086574;28;20028;-83
2022/04/25 13:14:14;;;;;;;6.13;4.82;;;18.00;80.00;;;;;;5086511;28;20086;-81
2022/04/25 13:16:40;;;;;;;6.80;5.32;;;18.00;78.90;;;;;;5087742;28;20459;-79
2022/04/25 13:19:06;;;;;;;8.20;5.68;;;17.90;78.90;;;;;;5088094;28;20020;-81
2022/04/25 13:21:34;;;;;;;7.70;6.22;;;17.80;80.70;;;;;;5087974;28;20434;-80